| time (UTC) | temp C | wind direction | speed KPH | gust KPH | rain 1hr cm | rain 24hr cm | rain mn cm | humidity % | barometer mb |
| 20260905234747 | 15 | 79 | 3.2 | 4.8 | 0.00 | 0.00 | 0.00 | 64 | 1001.6 |
| 20260905234247 | 15 | 137 | 1.6 | 3.2 | 0.00 | 0.00 | 0.00 | 63 | 1001.4 |
| 20260905233744 | 15 | 128 | 4.8 | 4.8 | 0.00 | 0.00 | 0.00 | 63 | 1001.3 |
| 20260905233244 | 15 | 142 | 3.2 | 4.8 | 0.00 | 0.00 | 0.00 | 65 | 1001.3 |
| 20260905232743 | 15 | 41 | 3.2 | 6.4 | 0.00 | 0.00 | 0.00 | 63 | 1001.2 |
| 20260905232243 | 15 | 227 | 1.6 | 3.2 | 0.00 | 0.00 | 0.00 | 63 | 1001.4 |
| 20260905231742 | 15 | 171 | 1.6 | 3.2 | 0.00 | 0.00 | 0.00 | 68 | 1001.1 |
| 20260905231242 | 15 | 217 | 3.2 | 4.8 | 0.00 | 0.00 | 0.00 | 64 | 1001.1 |
| 20260905230742 | 14 | 187 | 1.6 | 3.2 | 0.00 | 0.00 | 0.00 | 71 | 1001.0 |
| 20260905230241 | 12 | 130 | 3.2 | 3.2 | 0.00 | 0.00 | 0.00 | 78 | 1000.9 |
| 20260905225725 | 12 | 259 | 3.2 | 3.2 | 0.00 | 0.00 | 0.00 | 84 | 1000.8 |
| 20260905225225 | 12 | 199 | 0.0 | 0.0 | 0.00 | 0.00 | 0.00 | 85 | 1000.6 |
| 20260905224724 | 13 | 222 | 0.0 | 0.0 | 0.00 | 0.00 | 0.00 | 84 | 1000.5 |
| 20260905224208 | 12 | 229 | 1.6 | 1.6 | 0.00 | 0.00 | 0.00 | 84 | 1000.7 |
| 20260905223708 | 12 | 161 | 0.0 | 0.0 | 0.00 | 0.00 | 0.00 | 87 | 1000.3 |
| 20260905223207 | 12 | 221 | 0.0 | 0.0 | 0.00 | 0.00 | 0.00 | 85 | 1000.5 |
| 20260905222707 | 12 | 244 | 4.8 | 4.8 | 0.00 | 0.00 | 0.00 | 87 | 1000.4 |
| 20260905222206 | 12 | 228 | 0.0 | 1.6 | 0.00 | 0.00 | 0.00 | 87 | 1000.7 |
| 20260905221706 | 12 | 201 | 1.6 | 3.2 | 0.00 | 0.00 | 0.00 | 86 | 1000.6 |
| 20260905221205 | 12 | 254 | 3.2 | 4.8 | 0.00 | 0.00 | 0.00 | 86 | 1000.6 |
| 20260905220704 | 12 | 221 | 1.6 | 1.6 | 0.00 | 0.00 | 0.00 | 87 | 1000.4 |
| 20260905220204 | 12 | 234 | 3.2 | 3.2 | 0.00 | 0.00 | 0.00 | 89 | 1000.4 |
| 20260905215703 | 12 | 229 | 3.2 | 3.2 | 0.00 | 0.03 | 0.00 | 87 | 1000.6 |
| 20260905215203 | 12 | 230 | 3.2 | 3.2 | 0.00 | 0.03 | 0.00 | 87 | 1000.6 |
| 20260905214702 | 12 | 232 | 0.0 | 1.6 | 0.00 | 0.03 | 0.00 | 89 | 1000.4 |
| 20260905214202 | 12 | 230 | 1.6 | 1.6 | 0.00 | 0.03 | 0.00 | 92 | 1000.5 |
| 20260905213701 | 12 | 230 | 0.0 | 1.6 | 0.00 | 0.03 | 0.00 | 92 | 1000.5 |
| 20260905213201 | 12 | 229 | 0.0 | 0.0 | 0.00 | 0.03 | 0.00 | 93 | 1000.3 |
| 20260905212700 | 12 | 229 | 1.6 | 1.6 | 0.00 | 0.03 | 0.00 | 93 | 1000.4 |
| 20260905212200 | 12 | 231 | 1.6 | 1.6 | 0.00 | 0.03 | 0.00 | 94 | 1000.3 |
| 20260905211659 | 12 | 231 | 0.0 | 1.6 | 0.00 | 0.03 | 0.00 | 94 | 1000.3 |
| 20260905211159 | 12 | 231 | 0.0 | 0.0 | 0.00 | 0.03 | 0.00 | 94 | 1000.4 |
| 20260905210658 | 12 | 231 | 0.0 | 0.0 | 0.00 | 0.03 | 0.00 | 93 | 1000.3 |
| 20260905210158 | 12 | 231 | 0.0 | 0.0 | 0.00 | 0.03 | 0.00 | 93 | 1000.2 |
| 20260905205657 | 12 | 231 | 1.6 | 1.6 | 0.00 | 0.03 | 0.00 | 94 | 1000.1 |
| 20260905205127 | 12 | 231 | 0.0 | 0.0 | 0.00 | 0.03 | 0.00 | 95 | 1000.2 |
| 20260905204626 | 11 | 231 | 0.0 | 0.0 | 0.00 | 0.03 | 0.00 | 95 | 1000.3 |
| 20260905204126 | 11 | 231 | 0.0 | 0.0 | 0.00 | 0.03 | 0.00 | 95 | 1000.2 |
| 20260905203625 | 11 | 231 | 3.2 | 3.2 | 0.00 | 0.03 | 0.00 | 95 | 1000.2 |
| 20260905203110 | 11 | 231 | 0.0 | 0.0 | 0.00 | 0.03 | 0.00 | 95 | 1000.3 |
| 20260905202555 | 11 | 231 | 0.0 | 0.0 | 0.00 | 0.03 | 0.00 | 95 | 1000.3 |
| 20260905202054 | 12 | 231 | 0.0 | 0.0 | 0.00 | 0.03 | 0.00 | 94 | 1000.3 |
| 20260905201553 | 12 | 231 | 0.0 | 0.0 | 0.00 | 0.03 | 0.00 | 94 | 1000.1 |
| 20260905201053 | 12 | 231 | 0.0 | 0.0 | 0.00 | 0.03 | 0.00 | 93 | 1000.2 |
| 20260905200552 | 12 | 231 | 0.0 | 0.0 | 0.00 | 0.03 | 0.00 | 93 | 1000.3 |
| 20260905200037 | 12 | 231 | 0.0 | 0.0 | 0.00 | 0.03 | 0.00 | 93 | 1000.2 |
| 20260905195521 | 12 | 231 | 0.0 | 0.0 | 0.00 | 0.03 | 0.00 | 93 | 1000.2 |
| 20260905195021 | 12 | 230 | 0.0 | 0.0 | 0.00 | 0.03 | 0.00 | 92 | 1000.1 |
| 20260905194520 | 12 | 231 | 0.0 | 0.0 | 0.00 | 0.03 | 0.00 | 92 | 999.9 |
| 20260905194020 | 12 | 231 | 0.0 | 0.0 | 0.00 | 0.03 | 0.00 | 92 | 1000.0 |
| 20260905193519 | 12 | 230 | 0.0 | 0.0 | 0.00 | 0.03 | 0.00 | 92 | 999.8 |
| 20260905193004 | 12 | 231 | 0.0 | 0.0 | 0.00 | 0.03 | 0.00 | 91 | 1000.0 |
| 20260905192433 | 12 | 231 | 0.0 | 0.0 | 0.00 | 0.03 | 0.00 | 91 | 999.9 |
| 20260905191933 | 12 | 231 | 0.0 | 0.0 | 0.00 | 0.03 | 0.00 | 90 | 999.7 |
| 20260905191417 | 12 | 231 | 0.0 | 1.6 | 0.00 | 0.03 | 0.00 | 90 | 999.8 |
| 20260905190917 | 12 | 231 | 0.0 | 0.0 | 0.00 | 0.03 | 0.00 | 90 | 999.7 |
| 20260905190416 | 12 | 231 | 0.0 | 0.0 | 0.00 | 0.03 | 0.00 | 89 | 999.6 |
| 20260905185916 | 12 | 232 | 1.6 | 3.2 | 0.00 | 0.03 | 0.00 | 88 | 999.6 |
| 20260905185415 | 11 | 235 | 1.6 | 1.6 | 0.00 | 0.03 | 0.00 | 91 | 999.5 |
| 20260905184914 | 11 | 232 | 1.6 | 1.6 | 0.00 | 0.03 | 0.00 | 92 | 999.7 |
| 20260905184414 | 11 | 232 | 0.0 | 0.0 | 0.00 | 0.03 | 0.00 | 92 | 999.4 |
| 20260905183913 | 11 | 232 | 0.0 | 0.0 | 0.00 | 0.03 | 0.00 | 92 | 999.6 |
| 20260905183413 | 11 | 232 | 0.0 | 0.0 | 0.00 | 0.03 | 0.00 | 91 | 999.5 |
| 20260905182913 | 11 | 232 | 0.0 | 0.0 | 0.00 | 0.03 | 0.00 | 89 | 999.6 |
| 20260905182357 | 12 | 232 | 0.0 | 0.0 | 0.00 | 0.03 | 0.00 | 88 | 999.4 |
| 20260905181842 | 12 | 232 | 0.0 | 0.0 | 0.00 | 0.03 | 0.00 | 88 | 999.3 |
| 20260905181326 | 12 | 233 | 1.6 | 1.6 | 0.00 | 0.03 | 0.00 | 89 | 999.3 |
| 20260905180825 | 12 | 232 | 1.6 | 1.6 | 0.00 | 0.03 | 0.00 | 88 | 999.3 |
| 20260905180325 | 12 | 232 | 3.2 | 3.2 | 0.00 | 0.03 | 0.00 | 89 | 999.5 |
| 20260905175824 | 12 | 233 | 1.6 | 1.6 | 0.00 | 0.03 | 0.00 | 88 | 999.1 |
| 20260905175323 | 12 | 232 | 1.6 | 1.6 | 0.00 | 0.03 | 0.00 | 88 | 999.1 |
| 20260905174822 | 12 | 232 | 3.2 | 3.2 | 0.00 | 0.03 | 0.00 | 87 | 999.2 |
| 20260905174322 | 12 | 235 | 1.6 | 3.2 | 0.00 | 0.03 | 0.00 | 87 | 999.0 |
| 20260905173821 | 12 | 236 | 0.0 | 1.6 | 0.00 | 0.03 | 0.00 | 87 | 999.0 |
| 20260905173320 | 12 | 235 | 0.0 | 0.0 | 0.00 | 0.03 | 0.00 | 88 | 998.9 |
| 20260905172820 | 13 | 235 | 0.0 | 0.0 | 0.00 | 0.03 | 0.00 | 87 | 998.9 |
| 20260905172319 | 13 | 235 | 0.0 | 1.6 | 0.00 | 0.03 | 0.00 | 86 | 999.0 |
| 20260905171819 | 13 | 235 | 0.0 | 1.6 | 0.00 | 0.03 | 0.00 | 85 | 998.8 |
| 20260905171318 | 13 | 235 | 0.0 | 0.0 | 0.00 | 0.03 | 0.00 | 84 | 998.8 |
| 20260905170818 | 13 | 235 | 1.6 | 1.6 | 0.00 | 0.03 | 0.00 | 84 | 998.7 |
| 20260905170317 | 13 | 235 | 0.0 | 0.0 | 0.00 | 0.03 | 0.00 | 83 | 998.7 |
| 20260905165817 | 14 | 235 | 0.0 | 0.0 | 0.00 | 0.03 | 0.00 | 81 | 998.5 |
| 20260905165316 | 14 | 235 | 0.0 | 0.0 | 0.00 | 0.03 | 0.00 | 81 | 998.5 |
| 20260905164815 | 15 | 236 | 0.0 | 1.6 | 0.00 | 0.03 | 0.00 | 78 | 998.5 |
| 20260905164315 | 15 | 234 | 0.0 | 1.6 | 0.00 | 0.03 | 0.00 | 77 | 998.4 |
| 20260905163815 | 15 | 235 | 0.0 | 1.6 | 0.00 | 0.03 | 0.00 | 78 | 998.4 |
| 20260905163314 | 15 | 236 | 0.0 | 1.6 | 0.00 | 0.03 | 0.00 | 76 | 998.2 |
| 20260905162813 | 15 | 236 | 0.0 | 0.0 | 0.00 | 0.03 | 0.00 | 76 | 998.4 |
| 20260905162313 | 15 | 232 | 0.0 | 0.0 | 0.00 | 0.03 | 0.00 | 74 | 998.2 |
| 20260905161812 | 16 | 233 | 1.6 | 1.6 | 0.00 | 0.03 | 0.00 | 74 | 998.1 |
| 20260905161312 | 16 | 235 | 1.6 | 1.6 | 0.00 | 0.03 | 0.00 | 73 | 998.1 |
| 20260905160811 | 16 | 234 | 0.0 | 0.0 | 0.00 | 0.03 | 0.00 | 72 | 998.1 |
| 20260905160310 | 17 | 233 | 1.6 | 1.6 | 0.00 | 0.03 | 0.00 | 69 | 998.2 |
| 20260905155810 | 17 | 232 | 0.0 | 1.6 | 0.00 | 0.03 | 0.00 | 61 | 998.0 |
| 20260905155309 | 18 | 231 | 1.6 | 3.2 | 0.00 | 0.03 | 0.00 | 64 | 997.9 |
| 20260905154809 | 19 | 214 | 0.0 | 0.0 | 0.00 | 0.03 | 0.00 | 55 | 997.8 |
| 20260905154308 | 19 | 243 | 0.0 | 0.0 | 0.00 | 0.03 | 0.00 | 58 | 997.9 |
| 20260905153808 | 20 | 153 | 0.0 | 0.0 | 0.00 | 0.03 | 0.00 | 52 | 997.9 |
| 20260905153307 | 21 | 228 | 1.6 | 1.6 | 0.00 | 0.03 | 0.00 | 55 | 997.9 |
| 20260905152807 | 21 | 177 | 0.0 | 0.0 | 0.00 | 0.03 | 0.00 | 52 | 997.9 |
| 20260905152306 | 20 | 253 | 1.6 | 1.6 | 0.00 | 0.03 | 0.00 | 56 | 997.6 |
| 20260905151807 | 20 | 160 | 1.6 | 1.6 | 0.00 | 0.03 | 0.00 | 53 | 997.9 |
| 20260905151305 | 20 | 215 | 1.6 | 1.6 | 0.00 | 0.03 | 0.00 | 54 | 998.0 |
| 20260905150805 | 19 | 192 | 3.2 | 4.8 | 0.00 | 0.03 | 0.00 | 53 | 997.9 |
| 20260905150304 | 20 | 239 | 1.6 | 1.6 | 0.00 | 0.03 | 0.00 | 52 | 997.7 |
| 20260905145804 | 20 | 85 | 1.6 | 1.6 | 0.00 | 0.03 | 0.00 | 52 | 997.9 |
| 20260905145306 | 20 | 78 | 4.8 | 6.4 | 0.00 | 0.03 | 0.00 | 51 | 997.9 |
| 20260905144803 | 20 | 128 | 0.0 | 0.0 | 0.00 | 0.03 | 0.00 | 53 | 997.9 |
| 20260905144302 | 20 | 127 | 0.0 | 0.0 | 0.00 | 0.03 | 0.00 | 52 | 997.8 |
| 20260905143802 | 20 | 213 | 1.6 | 1.6 | 0.00 | 0.03 | 0.00 | 53 | 997.8 |
| 20260905143301 | 20 | 158 | 0.0 | 0.0 | 0.00 | 0.03 | 0.00 | 55 | 997.9 |
| 20260905142801 | 20 | 212 | 0.0 | 0.0 | 0.00 | 0.03 | 0.00 | 53 | 997.9 |
| 20260905142300 | 20 | 201 | 1.6 | 1.6 | 0.00 | 0.03 | 0.00 | 50 | 997.9 |
| 20260905141800 | 20 | 153 | 0.0 | 1.6 | 0.00 | 0.03 | 0.00 | 52 | 998.0 |
| 20260905141259 | 20 | 143 | 1.6 | 1.6 | 0.00 | 0.03 | 0.00 | 54 | 997.8 |
| 20260905140759 | 21 | 94 | 1.6 | 3.2 | 0.00 | 0.03 | 0.00 | 48 | 997.9 |
| 20260905140258 | 21 | 255 | 3.2 | 3.2 | 0.00 | 0.03 | 0.00 | 49 | 997.8 |
| 20260905135758 | 21 | 147 | 1.6 | 1.6 | 0.00 | 0.03 | 0.00 | 50 | 997.7 |
| 20260905135257 | 20 | 248 | 1.6 | 1.6 | 0.00 | 0.03 | 0.00 | 53 | 997.7 |
| 20260905134756 | 20 | 223 | 3.2 | 4.8 | 0.00 | 0.03 | 0.00 | 50 | 997.8 |
| 20260905134256 | 20 | 231 | 1.6 | 3.2 | 0.00 | 0.03 | 0.00 | 51 | 997.7 |
| 20260905133755 | 20 | 130 | 3.2 | 4.8 | 0.00 | 0.03 | 0.00 | 54 | 997.9 |
| 20260905133255 | 20 | 122 | 4.8 | 4.8 | 0.00 | 0.03 | 0.00 | 51 | 997.7 |
| 20260905132754 | 20 | 70 | 1.6 | 3.2 | 0.00 | 0.03 | 0.00 | 49 | 997.9 |
| 20260905132254 | 21 | 113 | 6.4 | 8.0 | 0.00 | 0.03 | 0.00 | 49 | 997.8 |
| 20260905131753 | 21 | 1 | 4.8 | 6.4 | 0.00 | 0.03 | 0.00 | 49 | 997.9 |
| 20260905131253 | 21 | 179 | 1.6 | 1.6 | 0.00 | 0.03 | 0.00 | 48 | 997.8 |
| 20260905130752 | 22 | 54 | 3.2 | 3.2 | 0.00 | 0.03 | 0.00 | 47 | 997.9 |
| 20260905130252 | 20 | 147 | 0.0 | 0.0 | 0.00 | 0.03 | 0.00 | 50 | 997.8 |
| 20260905125751 | 21 | 67 | 3.2 | 8.0 | 0.00 | 0.03 | 0.00 | 49 | 997.8 |
| 20260905125251 | 20 | 233 | 3.2 | 3.2 | 0.00 | 0.03 | 0.00 | 50 | 998.0 |
| 20260905124750 | 20 | 236 | 4.8 | 8.0 | 0.00 | 0.03 | 0.00 | 50 | 997.8 |
| 20260905124249 | 20 | 192 | 0.0 | 0.0 | 0.00 | 0.03 | 0.00 | 56 | 997.9 |
| 20260905123749 | 20 | 209 | 0.0 | 1.6 | 0.00 | 0.03 | 0.00 | 57 | 998.0 |
| 20260905123248 | 20 | 202 | 3.2 | 3.2 | 0.00 | 0.03 | 0.00 | 54 | 998.1 |
| 20260905122748 | 20 | 256 | 3.2 | 6.4 | 0.00 | 0.03 | 0.00 | 53 | 998.1 |
| 20260905122247 | 19 | 138 | 1.6 | 3.2 | 0.00 | 0.03 | 0.00 | 55 | 998.2 |
| 20260905121747 | 19 | 112 | 6.4 | 6.4 | 0.00 | 0.03 | 0.00 | 56 | 998.1 |
| 20260905121246 | 19 | 136 | 3.2 | 3.2 | 0.00 | 0.03 | 0.00 | 58 | 998.2 |
| 20260905120746 | 19 | 111 | 1.6 | 4.8 | 0.00 | 0.03 | 0.00 | 59 | 998.2 |
| 20260905120245 | 20 | 239 | 1.6 | 3.2 | 0.00 | 0.03 | 0.00 | 57 | 998.0 |
| 20260905115745 | 21 | 135 | 1.6 | 3.2 | 0.00 | 0.03 | 0.00 | 53 | 997.9 |
| 20260905115244 | 21 | 199 | 0.0 | 1.6 | 0.00 | 0.03 | 0.00 | 55 | 998.0 |
| 20260905114743 | 20 | 168 | 0.0 | 1.6 | 0.00 | 0.03 | 0.00 | 56 | 998.2 |
| 20260905114243 | 19 | 238 | 1.6 | 3.2 | 0.00 | 0.03 | 0.00 | 60 | 998.3 |
| 20260905113742 | 19 | 157 | 0.0 | 0.0 | 0.00 | 0.03 | 0.00 | 61 | 998.2 |
| 20260905113242 | 19 | 220 | 0.0 | 0.0 | 0.00 | 0.03 | 0.00 | 62 | 998.2 |
| 20260905112741 | 20 | 124 | 3.2 | 3.2 | 0.00 | 0.03 | 0.00 | 61 | 998.2 |
| 20260905112241 | 19 | 205 | 1.6 | 3.2 | 0.00 | 0.03 | 0.00 | 62 | 998.4 |
| 20260905111740 | 20 | 182 | 0.0 | 1.6 | 0.00 | 0.03 | 0.00 | 60 | 998.3 |
| 20260905111240 | 18 | 159 | 0.0 | 1.6 | 0.00 | 0.03 | 0.00 | 65 | 998.4 |
| 20260905110739 | 19 | 111 | 8.0 | 9.7 | 0.00 | 0.03 | 0.00 | 62 | 998.3 |
| 20260905110239 | 19 | 194 | 0.0 | 0.0 | 0.00 | 0.03 | 0.00 | 64 | 998.4 |
| 20260905105737 | 19 | 114 | 1.6 | 1.6 | 0.00 | 0.03 | 0.00 | 62 | 998.4 |
| 20260905105237 | 19 | 143 | 0.0 | 0.0 | 0.00 | 0.03 | 0.00 | 66 | 998.5 |
| 20260905104736 | 19 | 223 | 1.6 | 1.6 | 0.00 | 0.03 | 0.00 | 64 | 998.6 |
| 20260905104236 | 18 | 174 | 1.6 | 3.2 | 0.00 | 0.03 | 0.00 | 67 | 998.6 |
| 20260905103735 | 18 | 212 | 0.0 | 0.0 | 0.00 | 0.03 | 0.00 | 70 | 998.6 |
| 20260905103234 | 18 | 180 | 0.0 | 0.0 | 0.00 | 0.03 | 0.00 | 70 | 998.6 |
| 20260905102734 | 18 | 158 | 0.0 | 0.0 | 0.00 | 0.03 | 0.00 | 70 | 998.3 |
| 20260905102233 | 18 | 217 | 1.6 | 1.6 | 0.00 | 0.03 | 0.00 | 71 | 998.3 |
| 20260905101733 | 17 | 166 | 0.0 | 0.0 | 0.00 | 0.03 | 0.00 | 77 | 998.7 |
| 20260905101232 | 17 | 261 | 0.0 | 1.6 | 0.00 | 0.03 | 0.00 | 75 | 998.2 |
| 20260905100732 | 17 | 177 | 0.0 | 0.0 | 0.00 | 0.03 | 0.00 | 75 | 998.4 |
| 20260905100231 | 17 | 222 | 1.6 | 3.2 | 0.00 | 0.03 | 0.00 | 74 | 998.4 |
| 20260905095731 | 17 | 120 | 0.0 | 1.6 | 0.00 | 0.03 | 0.00 | 73 | 998.3 |
| 20260905095231 | 17 | 113 | 0.0 | 0.0 | 0.00 | 0.03 | 0.00 | 74 | 998.1 |
| 20260905094730 | 17 | 112 | 1.6 | 1.6 | 0.00 | 0.03 | 0.00 | 73 | 998.0 |
| 20260905094229 | 17 | 88 | 1.6 | 1.6 | 0.00 | 0.03 | 0.00 | 73 | 997.7 |
| 20260905093729 | 17 | 117 | 3.2 | 4.8 | 0.00 | 0.03 | 0.00 | 75 | 997.6 |
| 20260905093229 | 17 | 252 | 0.0 | 0.0 | 0.00 | 0.03 | 0.00 | 73 | 997.9 |
| 20260905092728 | 17 | 132 | 1.6 | 3.2 | 0.00 | 0.03 | 0.00 | 73 | 998.2 |
| 20260905092227 | 17 | 200 | 3.2 | 4.8 | 0.00 | 0.03 | 0.00 | 71 | 998.1 |
| 20260905091727 | 17 | 236 | 1.6 | 1.6 | 0.00 | 0.03 | 0.00 | 72 | 998.2 |
| 20260905091226 | 17 | 215 | 1.6 | 3.2 | 0.00 | 0.03 | 0.00 | 70 | 997.9 |
| 20260905090726 | 17 | 162 | 0.0 | 0.0 | 0.00 | 0.03 | 0.00 | 72 | 998.2 |
| 20260905090225 | 17 | 212 | 0.0 | 0.0 | 0.00 | 0.03 | 0.00 | 72 | 998.0 |
| 20260905085725 | 17 | 89 | 1.6 | 1.6 | 0.00 | 0.03 | 0.00 | 75 | 998.1 |
| 20260905085224 | 17 | 223 | 0.0 | 0.0 | 0.00 | 0.03 | 0.00 | 73 | 998.7 |
| 20260905084724 | 17 | 157 | 0.0 | 1.6 | 0.00 | 0.03 | 0.00 | 75 | 998.5 |
| 20260905084223 | 17 | 237 | 3.2 | 4.8 | 0.00 | 0.03 | 0.00 | 74 | 998.9 |
| 20260905083723 | 17 | 185 | 0.0 | 0.0 | 0.00 | 0.03 | 0.00 | 72 | 997.4 |
| 20260905083222 | 17 | 129 | 0.0 | 0.0 | 0.00 | 0.03 | 0.00 | 74 | 998.2 |
| 20260905082722 | 16 | 105 | 1.6 | 1.6 | 0.00 | 0.03 | 0.00 | 73 | 998.0 |
| 20260905082221 | 16 | 84 | 4.8 | 6.4 | 0.00 | 0.03 | 0.00 | 75 | 997.8 |
| 20260905081721 | 16 | 136 | 0.0 | 0.0 | 0.00 | 0.03 | 0.00 | 76 | 997.6 |
| 20260905081220 | 16 | 179 | 0.0 | 0.0 | 0.00 | 0.03 | 0.00 | 76 | 997.8 |
| 20260905080720 | 16 | 212 | 0.0 | 1.6 | 0.00 | 0.03 | 0.00 | 80 | 997.7 |
| 20260905080219 | 16 | 198 | 0.0 | 0.0 | 0.00 | 0.03 | 0.00 | 79 | 997.5 |
| 20260905075719 | 16 | 172 | 0.0 | 0.0 | 0.00 | 0.03 | 0.00 | 76 | 997.4 |
| 20260905075218 | 16 | 93 | 0.0 | 0.0 | 0.00 | 0.03 | 0.00 | 69 | 997.4 |
| 20260905074718 | 17 | 144 | 3.2 | 4.8 | 0.00 | 0.03 | 0.00 | 69 | 997.3 |
| 20260905074218 | 17 | 200 | 3.2 | 4.8 | 0.00 | 0.03 | 0.00 | 66 | 997.3 |
| 20260905073717 | 17 | 113 | 3.2 | 3.2 | 0.00 | 0.03 | 0.00 | 63 | 997.7 |
| 20260905073217 | 17 | 180 | 1.6 | 1.6 | 0.00 | 0.03 | 0.00 | 63 | 997.8 |
| 20260905072716 | 17 | 217 | 1.6 | 1.6 | 0.00 | 0.03 | 0.00 | 65 | 997.2 |
| 20260905072216 | 17 | 178 | 1.6 | 3.2 | 0.00 | 0.03 | 0.00 | 63 | 996.8 |
| 20260905071715 | 17 | 217 | 1.6 | 3.2 | 0.00 | 0.03 | 0.00 | 60 | 997.0 |
| 20260905071214 | 17 | 214 | 6.4 | 8.0 | 0.00 | 0.03 | 0.00 | 63 | 997.3 |
| 20260905070714 | 17 | 132 | 1.6 | 1.6 | 0.00 | 0.03 | 0.00 | 65 | 997.2 |
| 20260905070213 | 17 | 187 | 3.2 | 4.8 | 0.00 | 0.03 | 0.00 | 65 | 997.1 |
| 20260905065713 | 17 | 94 | 0.0 | 0.0 | 0.00 | 0.03 | 0.00 | 69 | 996.8 |
| 20260905065213 | 17 | 174 | 0.0 | 0.0 | 0.00 | 0.03 | 0.00 | 71 | 996.7 |
| 20260905064712 | 17 | 133 | 3.2 | 4.8 | 0.00 | 0.03 | 0.00 | 69 | 996.8 |
| 20260905064212 | 17 | 99 | 0.0 | 1.6 | 0.00 | 0.03 | 0.00 | 75 | 997.0 |
| 20260905063711 | 16 | 235 | 1.6 | 3.2 | 0.00 | 0.03 | 0.00 | 80 | 996.9 |
| 20260905063210 | 16 | 196 | 0.0 | 0.0 | 0.00 | 0.03 | 0.00 | 81 | 997.1 |
| 20260905062710 | 16 | 166 | 0.0 | 0.0 | 0.00 | 0.03 | 0.00 | 83 | 997.0 |
| 20260905062209 | 16 | 125 | 0.0 | 0.0 | 0.00 | 0.03 | 0.00 | 82 | 996.8 |
| 20260905061709 | 16 | 209 | 1.6 | 3.2 | 0.00 | 0.03 | 0.00 | 81 | 996.6 |
| 20260905061209 | 16 | 192 | 1.6 | 3.2 | 0.00 | 0.03 | 0.00 | 90 | 996.6 |
| 20260905060708 | 15 | 194 | 1.6 | 1.6 | 0.00 | 0.03 | 0.00 | 92 | 996.4 |
| 20260905060208 | 15 | 176 | 0.0 | 0.0 | 0.00 | 0.03 | 0.00 | 92 | 996.3 |
| 20260905055707 | 15 | 203 | 0.0 | 0.0 | 0.00 | 0.03 | 0.00 | 93 | 996.5 |
| 20260905055206 | 15 | 122 | 0.0 | 0.0 | 0.00 | 0.03 | 0.00 | 93 | 996.4 |
| 20260905054706 | 15 | 121 | 0.0 | 0.0 | 0.00 | 0.03 | 0.00 | 93 | 996.3 |
| 20260905054205 | 15 | 121 | 0.0 | 0.0 | 0.00 | 0.03 | 0.00 | 94 | 996.2 |
| 20260905053705 | 15 | 122 | 0.0 | 0.0 | 0.00 | 0.03 | 0.00 | 94 | 996.5 |
| 20260905053204 | 15 | 121 | 0.0 | 0.0 | 0.00 | 0.03 | 0.00 | 93 | 996.1 |
| 20260905052704 | 15 | 239 | 0.0 | 0.0 | 0.00 | 0.03 | 0.00 | 92 | 996.0 |
| 20260905052203 | 15 | 235 | 0.0 | 0.0 | 0.00 | 0.03 | 0.00 | 92 | 996.0 |
| 20260905051703 | 15 | 236 | 1.6 | 1.6 | 0.00 | 0.03 | 0.00 | 93 | 996.0 |
| 20260905051202 | 15 | 235 | 0.0 | 0.0 | 0.00 | 0.03 | 0.00 | 93 | 995.8 |
| 20260905050702 | 15 | 235 | 0.0 | 1.6 | 0.00 | 0.03 | 0.00 | 93 | 995.7 |
| 20260905050201 | 15 | 235 | 0.0 | 0.0 | 0.00 | 0.03 | 0.00 | 94 | 995.5 |
| 20260905045700 | 15 | 240 | 1.6 | 1.6 | 0.00 | 0.03 | 0.00 | 95 | 995.3 |
| 20260905045200 | 15 | 231 | 1.6 | 1.6 | 0.00 | 0.03 | 0.00 | 94 | 995.3 |
| 20260905044659 | 15 | 227 | 0.0 | 0.0 | 0.00 | 0.03 | 0.00 | 95 | 995.4 |
| 20260905044159 | 14 | 227 | 0.0 | 0.0 | 0.00 | 0.03 | 0.00 | 95 | 995.6 |
| 20260905043658 | 14 | 228 | 0.0 | 0.0 | 0.00 | 0.03 | 0.00 | 95 | 995.5 |
| 20260905043158 | 14 | 228 | 0.0 | 0.0 | 0.00 | 0.03 | 0.00 | 95 | 995.4 |
| 20260905042657 | 14 | 227 | 0.0 | 0.0 | 0.00 | 0.03 | 0.00 | 95 | 995.5 |
| 20260905042157 | 14 | 225 | 1.6 | 3.2 | 0.00 | 0.03 | 0.00 | 94 | 995.8 |
| 20260905041656 | 15 | 245 | 3.2 | 3.2 | 0.00 | 0.03 | 0.00 | 94 | 995.5 |
| 20260905041156 | 15 | 244 | 1.6 | 3.2 | 0.00 | 0.03 | 0.00 | 93 | 995.8 |
| 20260905040655 | 15 | 222 | 0.0 | 0.0 | 0.00 | 0.03 | 0.00 | 91 | 995.8 |
| 20260905040155 | 15 | 210 | 0.0 | 1.6 | 0.00 | 0.03 | 0.00 | 93 | 995.7 |
| 20260905035654 | 15 | 245 | 0.0 | 1.6 | 0.00 | 0.03 | 0.00 | 92 | 996.0 |
| 20260905035154 | 15 | 224 | 0.0 | 0.0 | 0.00 | 0.03 | 0.00 | 91 | 996.0 |
| 20260905034653 | 15 | 248 | 1.6 | 1.6 | 0.00 | 0.03 | 0.00 | 89 | 996.0 |
| 20260905034153 | 15 | 184 | 0.0 | 0.0 | 0.00 | 0.03 | 0.00 | 88 | 996.0 |
| 20260905033652 | 15 | 266 | 3.2 | 4.8 | 0.00 | 0.03 | 0.00 | 89 | 996.3 |
| 20260905033152 | 16 | 264 | 0.0 | 0.0 | 0.18 | 0.03 | 0.00 | 85 | 996.4 |
| 20260905032651 | 17 | 195 | 0.0 | 0.0 | 0.18 | 0.03 | 0.00 | 80 | 996.3 |
| 20260905032151 | 17 | 174 | 0.0 | 0.0 | 0.00 | 0.00 | 0.00 | 76 | 996.0 |
| 20260905031650 | 17 | 231 | 3.2 | 4.8 | 0.00 | 0.00 | 0.00 | 77 | 996.4 |
| 20260905031150 | 17 | 261 | 1.6 | 3.2 | 0.00 | 0.00 | 0.00 | 75 | 996.1 |
| 20260905030649 | 17 | 185 | 1.6 | 1.6 | 0.00 | 0.00 | 0.00 | 73 | 996.0 |
| 20260905030148 | 17 | 132 | 3.2 | 4.8 | 0.00 | 0.00 | 0.00 | 75 | 995.9 |
| 20260905025648 | 17 | 204 | 1.6 | 3.2 | 0.00 | 0.00 | 0.00 | 76 | 995.7 |
| 20260905025148 | 18 | 197 | 0.0 | 1.6 | 0.00 | 0.00 | 0.00 | 75 | 995.5 |
| 20260905024647 | 18 | 123 | 3.2 | 4.8 | 0.00 | 0.00 | 0.00 | 75 | 995.6 |
| 20260905024147 | 16 | 125 | 4.8 | 4.8 | 0.00 | 0.00 | 0.00 | 80 | 995.7 |
| 20260905023646 | 15 | 129 | 1.6 | 1.6 | 0.00 | 0.00 | 0.00 | 86 | 995.8 |
| 20260905023146 | 15 | 214 | 0.0 | 0.0 | 0.00 | 0.00 | 0.00 | 87 | 995.4 |
| 20260905022645 | 15 | 210 | 1.6 | 3.2 | 0.00 | 0.00 | 0.00 | 88 | 995.0 |
| 20260905022145 | 15 | 248 | 3.2 | 4.8 | 0.00 | 0.00 | 0.00 | 87 | 995.1 |
| 20260905021644 | 15 | 202 | 0.0 | 0.0 | 0.00 | 0.00 | 0.00 | 86 | 994.8 |
| 20260905021144 | 15 | 215 | 0.0 | 1.6 | 0.00 | 0.00 | 0.00 | 86 | 994.8 |
| 20260905020643 | 15 | 227 | 0.0 | 1.6 | 0.00 | 0.00 | 0.00 | 85 | 994.8 |
| 20260905020143 | 15 | 243 | 3.2 | 3.2 | 0.00 | 0.00 | 0.00 | 86 | 994.5 |
| 20260905015642 | 15 | 138 | 0.0 | 0.0 | 0.00 | 0.00 | 0.00 | 85 | 994.7 |
| 20260905015142 | 16 | 143 | 0.0 | 1.6 | 0.00 | 0.00 | 0.00 | 83 | 994.4 |
| 20260905014641 | 16 | 236 | 0.0 | 0.0 | 0.00 | 0.00 | 0.00 | 80 | 994.5 |
| 20260905014141 | 16 | 229 | 3.2 | 3.2 | 0.00 | 0.00 | 0.00 | 79 | 994.1 |
| 20260905013640 | 17 | 221 | 0.0 | 0.0 | 0.00 | 0.00 | 0.00 | 76 | 994.1 |
| 20260905013139 | 17 | 215 | 0.0 | 0.0 | 0.00 | 0.00 | 0.00 | 76 | 993.9 |
| 20260905012639 | 17 | 200 | 0.0 | 1.6 | 0.00 | 0.00 | 0.00 | 75 | 993.8 |
| 20260905012138 | 17 | 262 | 0.0 | 0.0 | 0.00 | 0.00 | 0.00 | 72 | 994.1 |
| 20260905011638 | 17 | 62 | 1.6 | 4.8 | 0.00 | 0.00 | 0.00 | 72 | 994.0 |
| 20260905011137 | 17 | 177 | 0.0 | 1.6 | 0.00 | 0.00 | 0.00 | 72 | 993.3 |
| 20260905010637 | 17 | 185 | 0.0 | 1.6 | 0.00 | 0.00 | 0.00 | 72 | 993.2 |
| 20260905010136 | 17 | 208 | 0.0 | 1.6 | 0.00 | 0.00 | 0.00 | 71 | 993.2 |
| 20260905005636 | 17 | 207 | 3.2 | 4.8 | 0.00 | 0.00 | 0.00 | 71 | 993.0 |
| 20260905005135 | 17 | 206 | 3.2 | 4.8 | 0.00 | 0.00 | 0.00 | 70 | 993.0 |
| 20260905004634 | 17 | 232 | 4.8 | 6.4 | 0.00 | 0.00 | 0.00 | 71 | 992.9 |
| 20260905004134 | 17 | 219 | 4.8 | 6.4 | 0.00 | 0.00 | 0.00 | 74 | 993.0 |
| 20260905003633 | 17 | 245 | 4.8 | 4.8 | 0.00 | 0.00 | 0.00 | 72 | 993.0 |
| 20260905003133 | 17 | 231 | 3.2 | 3.2 | 0.00 | 0.00 | 0.00 | 74 | 993.0 |
| 20260905002632 | 17 | 219 | 3.2 | 4.8 | 0.00 | 0.00 | 0.00 | 72 | 993.1 |
| 20260905002132 | 17 | 232 | 3.2 | 4.8 | 0.00 | 0.00 | 0.00 | 73 | 993.0 |
| 20260905001631 | 18 | 232 | 4.8 | 4.8 | 0.00 | 0.00 | 0.00 | 71 | 993.1 |
| 20260905001131 | 18 | 226 | 8.0 | 9.7 | 0.00 | 0.00 | 0.00 | 68 | 992.9 |
| 20260905000630 | 18 | 240 | 6.4 | 8.0 | 0.00 | 0.00 | 0.00 | 69 | 993.0 |
| 20260905000130 | 18 | 229 | 6.4 | 8.0 | 0.00 | 0.00 | 0.00 | 69 | 992.9 |
| 20260904235629 | 18 | 226 | 6.4 | 8.0 | 0.00 | 0.00 | 0.00 | 68 | 992.9 |
| 20260904235129 | 18 | 226 | 8.0 | 9.7 | 0.00 | 0.00 | 0.00 | 68 | 992.6 |